Twin Hills, Alaska
Current Conditions -  °F | °C
As of 11:16 AM on Thursday 29 Jan 2015 (Local Time) from PATG Reporting Station
Clear Clear  
Wind Chill:   Ceiling: Unl
Heat Index: 10°   Visibility: 10mi
Dew Point: -2°   Wind: 7mph
Humidity: 57%   Direction: 350°N
Pressure: 30.23"   Gusts: NA
Location:  59.3265°N, 160.095°W
Report Text: PATG 292016Z AUTO 35006KT 10SM CLR M12/M19 A3023 RMK AO1
Loading
Personal Weather Stations






























Interactive Weather Map New forecast layout! Learn more

10-Day Weather Forecast

Advertisements
Track Severe Weather on mobile